createdAt,value
2019-05-13T00:00:50.864Z,1.63
2019-05-13T00:03:18.195Z,1.80
2019-05-13T00:05:45.539Z,1.53
2019-05-13T00:08:13.954Z,1.67
2019-05-13T00:10:43.526Z,1.47
2019-05-13T00:13:10.854Z,1.73
2019-05-13T00:15:38.190Z,1.60
2019-05-13T00:18:05.543Z,1.60
2019-05-13T00:20:33.824Z,1.63
2019-05-13T00:23:03.630Z,1.80
2019-05-13T00:25:30.625Z,1.70
2019-05-13T00:27:58.052Z,1.57
2019-05-13T00:30:25.394Z,1.73
2019-05-13T00:32:54.601Z,1.33
2019-05-13T00:35:23.324Z,1.57
2019-05-13T00:37:50.725Z,1.70
2019-05-13T00:40:18.055Z,1.40
2019-05-13T00:42:45.383Z,1.70
2019-05-13T00:45:14.505Z,1.53
2019-05-13T00:47:43.614Z,1.73
2019-05-13T00:50:13.919Z,2.00
2019-05-13T00:52:40.832Z,1.60
2019-05-13T00:55:09.981Z,1.63
2019-05-13T00:57:37.319Z,1.57
2019-05-13T01:00:05.108Z,1.80
2019-05-13T01:02:33.822Z,1.87
2019-05-13T01:05:04.144Z,1.70
2019-05-13T01:07:31.032Z,1.50
2019-05-13T01:09:58.366Z,1.40
2019-05-13T01:12:25.670Z,1.50
2019-05-13T01:14:53.413Z,1.73
2019-05-13T01:17:20.910Z,1.73
2019-05-13T01:19:50.076Z,1.70
2019-05-13T01:22:17.330Z,1.77
2019-05-13T01:24:44.672Z,1.87
2019-05-13T01:27:13.922Z,1.60
2019-05-13T01:29:43.393Z,1.67
2019-05-13T01:32:10.392Z,1.70
2019-05-13T01:34:37.716Z,1.70
2019-05-13T01:37:05.055Z,1.50
2019-05-13T01:39:34.656Z,1.53
2019-05-13T01:42:03.721Z,1.70
2019-05-13T01:44:30.706Z,1.70
2019-05-13T01:46:57.936Z,1.57
2019-05-13T01:49:25.294Z,1.70
2019-05-13T01:51:54.209Z,2.10
2019-05-13T01:54:21.707Z,2.00
2019-05-13T01:56:49.065Z,1.83
2019-05-13T01:59:16.452Z,1.50
2019-05-13T02:01:44.300Z,1.77
2019-05-13T02:04:14.037Z,1.97
2019-05-13T02:06:40.940Z,1.53
2019-05-13T02:09:08.326Z,2.00
2019-05-13T02:11:35.628Z,2.17
2019-05-13T02:14:05.590Z,1.87
2019-05-13T02:16:33.765Z,1.70
2019-05-13T02:19:03.682Z,1.87
2019-05-13T02:21:30.665Z,1.80
2019-05-13T02:23:57.898Z,1.63
2019-05-13T02:26:25.186Z,1.77
2019-05-13T02:28:54.104Z,1.70
2019-05-13T02:31:31.924Z,1.67
2019-05-13T02:33:53.058Z,1.97
2019-05-13T02:36:22.879Z,2.00
2019-05-13T02:38:49.377Z,1.90
2019-05-13T02:41:16.708Z,2.07
2019-05-13T02:43:45.231Z,2.13
2019-05-13T02:46:13.140Z,1.87
2019-05-13T02:48:42.198Z,2.27
2019-05-13T02:51:12.425Z,2.17
2019-05-13T02:53:39.916Z,2.05
2019-05-13T02:56:08.208Z,1.87
2019-05-13T02:58:35.548Z,1.90
2019-05-13T03:01:03.575Z,2.30
2019-05-13T03:03:32.771Z,1.92
2019-05-13T03:06:02.978Z,1.87
2019-05-13T03:08:41.165Z,2.10
2019-05-13T03:10:58.901Z,2.20
2019-05-13T03:13:26.237Z,2.37
2019-05-13T03:16:13.187Z,2.10
2019-05-13T03:18:43.224Z,2.00
2019-05-13T03:21:12.427Z,2.43
2019-05-13T03:23:38.268Z,2.90
2019-05-13T03:26:05.709Z,2.10
2019-05-13T03:28:33.800Z,2.10
2019-05-13T03:31:06.786Z,2.25
2019-05-13T03:33:35.853Z,1.90
2019-05-13T03:36:05.600Z,2.33
2019-05-13T03:38:32.634Z,2.27
2019-05-13T03:41:03.315Z,2.27
2019-05-13T03:43:32.594Z,2.30
2019-05-13T03:46:03.406Z,2.55
2019-05-13T03:48:33.699Z,2.65
2019-05-13T03:51:02.676Z,2.70
2019-05-13T03:53:32.610Z,2.87
2019-05-13T03:56:02.455Z,2.90
2019-05-13T03:58:32.403Z,3.27
2019-05-13T04:01:02.473Z,2.70
2019-05-13T04:03:28.394Z,2.95
2019-05-13T04:05:55.703Z,2.95
2019-05-13T04:08:23.227Z,2.87
2019-05-13T04:10:52.504Z,2.92
2019-05-13T04:13:22.985Z,3.02
2019-05-13T04:15:48.983Z,2.85
2019-05-13T04:18:16.374Z,3.22
2019-05-13T04:20:43.731Z,2.83
2019-05-13T04:23:12.885Z,2.75
2019-05-13T04:25:44.442Z,3.08
2019-05-13T04:28:13.069Z,3.50
2019-05-13T04:30:39.199Z,3.10
2019-05-13T04:33:06.614Z,2.98
2019-05-13T04:35:34.017Z,3.08
2019-05-13T04:38:03.514Z,2.90
2019-05-13T04:40:33.227Z,2.40
2019-05-13T04:43:02.877Z,2.62
2019-05-13T04:45:33.068Z,2.50
2019-05-13T04:47:59.054Z,2.52
2019-05-13T04:50:26.584Z,2.60
2019-05-13T04:52:53.904Z,3.25
2019-05-13T04:55:22.859Z,2.40
2019-05-13T04:57:53.195Z,2.50
2019-05-13T05:00:49.919Z,2.60
2019-05-13T05:03:33.029Z,2.60
2019-05-13T05:06:22.822Z,2.90
2019-05-13T05:10:13.243Z,2.33
2019-05-13T05:12:45.296Z,3.03
2019-05-13T05:16:07.188Z,2.60
2019-05-13T05:19:23.827Z,2.53
2019-05-13T05:22:18.565Z,2.50
2019-05-13T05:25:01.825Z,2.33
2019-05-13T05:27:45.545Z,2.43
2019-05-13T05:30:51.826Z,2.30
2019-05-13T05:33:51.701Z,2.60
2019-05-13T05:36:55.616Z,2.37
2019-05-13T05:39:24.092Z,2.43
2019-05-13T05:41:53.869Z,2.70
2019-05-13T05:44:23.251Z,2.70
2019-05-13T05:46:53.262Z,2.47
2019-05-13T05:49:23.483Z,3.07
2019-05-13T05:51:52.784Z,2.90
2019-05-13T05:54:22.043Z,2.70
2019-05-13T05:56:52.417Z,2.77
2019-05-13T05:59:21.722Z,2.30
2019-05-13T06:01:52.631Z,2.97
2019-05-13T06:04:21.970Z,2.90
2019-05-13T06:06:52.035Z,3.17
2019-05-13T06:09:21.314Z,2.90
2019-05-13T06:11:48.539Z,3.10
2019-05-13T06:14:15.946Z,2.60
2019-05-13T06:16:43.461Z,2.80
2019-05-13T06:19:12.078Z,2.80
2019-05-13T06:21:41.981Z,2.30
2019-05-13T06:24:11.516Z,2.77
2019-05-13T06:26:38.402Z,2.80
2019-05-13T06:29:05.733Z,2.70
2019-05-13T06:31:33.063Z,2.67
2019-05-13T06:34:02.070Z,2.93
2019-05-13T06:36:31.686Z,3.00
2019-05-13T06:38:59.052Z,2.90
2019-05-13T06:41:26.477Z,2.40
2019-05-13T06:43:53.933Z,2.83
2019-05-13T06:46:21.964Z,2.43
2019-05-13T06:48:51.926Z,2.40
2019-05-13T06:51:18.745Z,2.77
2019-05-13T06:53:46.115Z,2.73
2019-05-13T06:56:13.571Z,3.00
2019-05-13T06:58:41.637Z,2.80
2019-05-13T07:01:11.559Z,2.80
2019-05-13T07:03:38.568Z,2.80
2019-05-13T07:06:05.881Z,3.10
2019-05-13T07:08:33.134Z,2.70
2019-05-13T07:11:17.163Z,2.50
2019-05-13T07:13:32.090Z,3.30
2019-05-13T07:16:01.254Z,2.67
2019-05-13T07:18:28.235Z,2.70
2019-05-13T07:20:55.567Z,2.73
2019-05-13T07:23:23.002Z,2.73
2019-05-13T07:25:52.505Z,2.33
2019-05-13T07:28:21.887Z,2.43
2019-05-13T07:30:48.886Z,2.60
2019-05-13T07:33:16.257Z,2.67
2019-05-13T07:35:45.617Z,2.10
2019-05-13T07:38:13.288Z,2.50
2019-05-13T07:40:41.759Z,2.67
2019-05-13T07:43:09.241Z,2.60
2019-05-13T07:45:36.473Z,2.43
2019-05-13T07:48:18.354Z,2.60
2019-05-13T07:50:33.436Z,2.67
2019-05-13T07:53:02.270Z,2.73
2019-05-13T07:55:31.617Z,3.00
2019-05-13T07:57:59.132Z,2.70
2019-05-13T08:00:26.464Z,2.43
2019-05-13T08:02:53.830Z,2.57
2019-05-13T08:05:22.354Z,2.90
2019-05-13T08:07:51.506Z,2.73
2019-05-13T08:10:19.062Z,2.57
2019-05-13T08:12:46.348Z,2.60
2019-05-13T08:15:16.164Z,2.60
2019-05-13T08:17:47.298Z,2.33
2019-05-13T08:20:12.960Z,2.40
2019-05-13T08:22:42.470Z,2.50
2019-05-13T08:25:12.374Z,2.20
2019-05-13T08:27:38.949Z,2.20
2019-05-13T08:30:07.378Z,1.87
2019-05-13T08:32:34.696Z,2.07
2019-05-13T08:35:08.736Z,2.30
2019-05-13T08:37:32.113Z,2.30
2019-05-13T08:40:01.577Z,2.20
2019-05-13T08:42:28.876Z,2.10
2019-05-13T08:44:56.216Z,2.30
2019-05-13T08:47:23.548Z,1.87
2019-05-13T08:49:52.013Z,1.90
2019-05-13T08:52:21.760Z,1.97
2019-05-13T08:54:48.724Z,1.70
2019-05-13T08:57:16.084Z,2.00
2019-05-13T08:59:43.430Z,2.30
2019-05-13T09:02:11.548Z,2.07
2019-05-13T09:04:39.129Z,1.90
2019-05-13T09:07:06.448Z,1.90
2019-05-13T09:09:33.680Z,1.67
2019-05-13T09:12:02.406Z,1.90
2019-05-13T09:14:32.447Z,2.10
2019-05-13T09:17:01.816Z,2.30
2019-05-13T09:19:28.864Z,2.20
2019-05-13T09:21:56.326Z,2.00
2019-05-13T09:24:32.772Z,1.50
2019-05-13T09:26:52.982Z,1.70
2019-05-13T09:29:22.592Z,1.90
2019-05-13T09:31:51.976Z,1.60
2019-05-13T09:34:19.056Z,1.50
2019-05-13T09:36:46.380Z,1.53
2019-05-13T09:39:13.725Z,1.40
2019-05-13T09:41:44.308Z,1.33
2019-05-13T09:44:12.391Z,1.80
2019-05-13T09:46:39.410Z,1.33
2019-05-13T09:49:16.116Z,1.40
2019-05-13T09:51:36.376Z,1.20
2019-05-13T09:54:03.688Z,1.70
2019-05-13T09:56:31.930Z,1.30
2019-05-13T09:59:01.767Z,1.20
2019-05-13T10:01:28.676Z,1.60
2019-05-13T10:03:58.214Z,1.60
2019-05-13T10:06:25.227Z,1.50
2019-05-13T10:08:52.841Z,1.40
2019-05-13T10:11:21.815Z,1.40
2019-05-13T10:13:51.558Z,1.50
2019-05-13T10:16:18.955Z,1.03
2019-05-13T10:18:46.296Z,1.43
2019-05-13T10:21:13.757Z,1.60
2019-05-13T10:23:42.134Z,1.70
2019-05-13T10:26:13.601Z,1.47
2019-05-13T10:28:42.384Z,1.47
2019-05-13T10:31:11.797Z,1.63
2019-05-13T10:33:38.107Z,1.57
2019-05-13T10:36:05.577Z,1.50
2019-05-13T10:38:33.020Z,1.80
2019-05-13T10:41:02.876Z,1.30
2019-05-13T10:43:32.005Z,1.50
2019-05-13T10:45:58.773Z,1.40
2019-05-13T10:48:26.220Z,1.37
2019-05-13T10:50:53.611Z,1.40
2019-05-13T10:53:22.033Z,1.60
2019-05-13T10:55:52.167Z,1.47
2019-05-13T10:58:22.978Z,1.50
2019-05-13T11:00:51.754Z,1.40
2019-05-13T11:03:22.728Z,1.17
2019-05-13T11:05:52.256Z,1.60
2019-05-13T11:08:18.491Z,1.47
2019-05-13T11:10:45.877Z,1.40
2019-05-13T11:13:13.421Z,1.10
2019-05-13T11:15:45.432Z,1.50
2019-05-13T11:18:11.758Z,1.33
2019-05-13T11:20:41.473Z,1.33
2019-05-13T11:23:08.598Z,1.33
2019-05-13T11:25:36.072Z,1.40
2019-05-13T11:28:03.724Z,1.50
2019-05-13T11:30:31.972Z,1.40
2019-05-13T11:33:01.686Z,1.00
2019-05-13T11:35:28.797Z,1.40
2019-05-13T11:37:56.208Z,1.30
2019-05-13T11:40:23.625Z,1.20
2019-05-13T11:42:52.695Z,1.30
2019-05-13T11:45:22.361Z,1.47
2019-05-13T11:47:51.980Z,1.50
2019-05-13T11:50:19.133Z,1.30
2019-05-13T11:52:46.477Z,1.40
2019-05-13T11:55:14.325Z,1.20
2019-05-13T11:57:44.342Z,1.20
2019-05-13T12:00:13.408Z,1.17
2019-05-13T12:02:42.589Z,1.30
2019-05-13T12:05:10.494Z,1.63
2019-05-13T12:07:37.845Z,1.57
2019-05-13T12:10:05.765Z,1.60
2019-05-13T12:12:34.497Z,1.20
2019-05-13T12:15:25.845Z,1.87
2019-05-13T12:17:33.921Z,1.53
2019-05-13T12:20:03.025Z,1.50
2019-05-13T12:22:29.952Z,1.50
2019-05-13T12:24:57.251Z,1.80
2019-05-13T12:27:24.669Z,1.60
2019-05-13T12:29:52.851Z,1.60
2019-05-13T12:32:22.449Z,1.47
2019-05-13T12:34:52.375Z,1.70
2019-05-13T12:37:21.905Z,1.40
2019-05-13T12:39:48.330Z,1.70
2019-05-13T12:42:16.124Z,1.57
2019-05-13T12:45:00.301Z,1.60
2019-05-13T12:47:12.871Z,1.90
2019-05-13T12:49:43.732Z,1.50
2019-05-13T12:52:12.783Z,1.60
2019-05-13T12:54:38.757Z,1.77
2019-05-13T12:57:11.820Z,1.97
2019-05-13T12:59:35.321Z,1.80
2019-05-13T13:02:03.435Z,1.70
2019-05-13T13:04:33.497Z,1.87
2019-05-13T13:07:00.235Z,1.97
2019-05-13T13:09:27.563Z,2.13
2019-05-13T13:11:54.795Z,2.30
2019-05-13T13:14:22.184Z,1.87
2019-05-13T13:16:53.625Z,2.03
2019-05-13T13:19:18.718Z,2.20
2019-05-13T13:21:45.981Z,2.13
2019-05-13T13:24:13.301Z,1.93
2019-05-13T13:26:42.829Z,1.60
2019-05-13T13:29:09.648Z,2.40
2019-05-13T13:31:37.226Z,2.20
2019-05-13T13:34:12.203Z,2.23
2019-05-13T13:36:33.990Z,2.13
2019-05-13T13:39:03.801Z,2.20
2019-05-13T13:41:32.789Z,2.27
2019-05-13T13:44:04.716Z,2.40
2019-05-13T13:46:38.334Z,1.90
2019-05-13T13:48:58.110Z,2.10
2019-05-13T13:51:26.824Z,1.80
2019-05-13T13:53:56.600Z,1.83
2019-05-13T13:56:25.447Z,2.20
2019-05-13T13:58:53.113Z,2.67
2019-05-13T14:01:26.641Z,2.40
2019-05-13T14:03:49.629Z,1.90
2019-05-13T14:07:09.453Z,1.90
2019-05-13T14:08:49.064Z,1.70
2019-05-13T14:11:16.387Z,1.70
2019-05-13T14:13:43.741Z,2.10
2019-05-13T14:16:24.924Z,1.93
2019-05-13T14:18:41.903Z,1.90
2019-05-13T14:21:09.575Z,1.80
2019-05-13T14:23:37.986Z,1.70
2019-05-13T14:26:05.519Z,1.63
2019-05-13T14:28:33.386Z,1.80
2019-05-13T14:31:01.853Z,2.03
2019-05-13T14:33:32.553Z,1.70
2019-05-13T14:36:01.322Z,1.73
2019-05-13T14:38:27.877Z,1.70
2019-05-13T14:40:55.260Z,2.13
2019-05-13T14:43:23.083Z,1.60
2019-05-13T14:45:52.059Z,1.87
2019-05-13T14:48:22.069Z,1.80
2019-05-13T14:50:48.917Z,1.70
2019-05-13T14:53:16.397Z,1.70
2019-05-13T14:55:44.145Z,1.70
2019-05-13T14:58:11.828Z,2.00
2019-05-13T15:00:41.969Z,1.80
2019-05-13T15:03:08.742Z,1.90
2019-05-13T15:05:36.104Z,1.80
2019-05-13T15:08:03.716Z,1.80
2019-05-13T15:10:31.564Z,2.10
2019-05-13T15:12:59.065Z,1.57
2019-05-13T15:15:26.287Z,1.70
2019-05-13T15:17:53.656Z,1.73
2019-05-13T15:20:21.793Z,1.73
2019-05-13T15:22:51.681Z,1.70
2019-05-13T15:25:18.533Z,2.20
2019-05-13T15:27:45.952Z,2.00
2019-05-13T15:30:17.857Z,1.80
2019-05-13T15:32:42.737Z,1.93
2019-05-13T15:35:13.212Z,1.70
2019-05-13T15:37:41.224Z,1.90
2019-05-13T15:40:08.838Z,1.60
2019-05-13T15:42:36.275Z,1.77
2019-05-13T15:45:04.089Z,1.70
2019-05-13T15:47:31.453Z,1.80
2019-05-13T15:50:02.193Z,1.70
2019-05-13T15:52:28.175Z,1.90
2019-05-13T15:54:55.510Z,1.87
2019-05-13T15:57:23.646Z,2.20
2019-05-13T15:59:51.824Z,1.80
2019-05-13T16:02:19.420Z,1.77
2019-05-13T16:04:53.084Z,1.73
2019-05-13T16:07:16.054Z,1.97
2019-05-13T16:09:43.270Z,1.80
2019-05-13T16:12:12.153Z,2.03
2019-05-13T16:14:39.828Z,1.90
2019-05-13T16:17:08.857Z,2.13
2019-05-13T16:19:36.204Z,1.80
2019-05-13T16:22:03.521Z,2.03
2019-05-13T16:24:32.133Z,2.03
2019-05-13T16:27:02.198Z,2.00
2019-05-13T16:29:31.409Z,1.87
2019-05-13T16:31:58.278Z,1.93
2019-05-13T16:34:25.978Z,1.83
2019-05-13T16:36:53.279Z,1.90
2019-05-13T16:39:21.275Z,1.70
2019-05-13T16:41:48.948Z,2.00
2019-05-13T16:44:16.152Z,1.83
2019-05-13T16:46:43.566Z,2.07
2019-05-13T16:49:12.153Z,1.70
2019-05-13T16:51:39.692Z,2.33
2019-05-13T16:54:07.039Z,2.20
2019-05-13T16:56:34.402Z,2.27
2019-05-13T16:59:01.767Z,1.90
2019-05-13T17:01:29.167Z,2.07
2019-05-13T17:03:56.433Z,2.10
2019-05-13T17:06:23.783Z,2.33
2019-05-13T17:08:51.660Z,1.97
2019-05-13T17:11:19.143Z,1.90
2019-05-13T17:13:46.501Z,2.33
2019-05-13T17:16:13.875Z,1.77
2019-05-13T17:18:41.852Z,1.80
2019-05-13T17:21:09.381Z,1.60
2019-05-13T17:23:37.140Z,2.43
2019-05-13T17:26:04.759Z,1.80
2019-05-13T17:28:34.182Z,1.90
2019-05-13T17:31:02.175Z,1.80
2019-05-13T17:33:31.823Z,2.00
2019-05-13T17:36:01.623Z,2.03
2019-05-13T17:38:28.536Z,2.20
2019-05-13T17:40:55.985Z,1.70
2019-05-13T17:43:23.405Z,1.90
2019-05-13T17:45:52.353Z,2.13
2019-05-13T17:48:28.423Z,1.90
2019-05-13T17:50:49.156Z,1.90
2019-05-13T17:53:16.409Z,1.53
2019-05-13T17:55:43.738Z,1.70
2019-05-13T17:58:11.715Z,2.00
2019-05-13T18:00:41.375Z,1.90
2019-05-13T18:03:08.337Z,1.80
2019-05-13T18:05:35.803Z,1.73
2019-05-13T18:08:03.919Z,1.77
2019-05-13T18:10:31.873Z,1.83
2019-05-13T18:13:01.535Z,2.03
2019-05-13T18:15:28.663Z,1.70
2019-05-13T18:17:56.049Z,1.70
2019-05-13T18:20:23.414Z,1.83
2019-05-13T18:22:52.360Z,1.87
2019-05-13T18:25:22.153Z,1.57
2019-05-13T18:27:49.514Z,1.70
2019-05-13T18:30:17.007Z,2.03
2019-05-13T18:32:44.345Z,1.83
2019-05-13T18:35:12.334Z,1.93
2019-05-13T18:37:41.810Z,1.73
2019-05-13T18:40:11.503Z,1.90
2019-05-13T18:42:38.961Z,2.17
2019-05-13T18:45:06.716Z,1.90
2019-05-13T18:47:34.132Z,1.93
2019-05-13T18:50:02.267Z,1.90
2019-05-13T18:52:31.284Z,2.10
2019-05-13T18:54:59.071Z,1.87
2019-05-13T18:57:26.625Z,1.77
2019-05-13T18:59:54.111Z,2.23
2019-05-13T19:02:21.584Z,1.80
2019-05-13T19:04:48.929Z,1.50
2019-05-13T19:07:16.228Z,1.83
2019-05-13T19:09:43.709Z,2.97
2019-05-13T19:12:11.611Z,2.07
2019-05-13T19:14:41.179Z,2.17
2019-05-13T19:17:08.563Z,2.17
2019-05-13T19:19:35.973Z,2.53
2019-05-13T19:22:03.484Z,1.87
2019-05-13T19:24:31.267Z,2.30
2019-05-13T19:26:58.846Z,3.57
2019-05-13T19:29:26.350Z,2.47
2019-05-13T19:31:53.853Z,2.93
2019-05-13T19:34:21.581Z,2.10
2019-05-13T19:36:49.019Z,2.50
2019-05-13T19:39:16.435Z,2.10
2019-05-13T19:41:43.924Z,2.20
2019-05-13T19:44:11.331Z,2.20
2019-05-13T19:46:38.721Z,2.00
2019-05-13T19:49:06.139Z,2.60
2019-05-13T19:51:33.613Z,1.90
2019-05-13T19:54:01.325Z,1.93
2019-05-13T19:56:28.895Z,2.20
2019-05-13T19:58:56.271Z,1.90
2019-05-13T20:01:23.651Z,2.00
2019-05-13T20:03:51.559Z,2.07
2019-05-13T20:06:21.309Z,2.27
2019-05-13T20:08:48.363Z,2.00
2019-05-13T20:11:15.703Z,2.13
2019-05-13T20:13:43.113Z,1.63
2019-05-13T20:16:11.728Z,2.42
2019-05-13T20:18:41.457Z,2.00
2019-05-13T20:21:11.181Z,1.70
2019-05-13T20:23:38.068Z,2.17
2019-05-13T20:26:05.491Z,2.10
2019-05-13T20:28:32.869Z,1.97
2019-05-13T20:31:01.908Z,2.20
2019-05-13T20:33:31.952Z,2.30
2019-05-13T20:36:01.382Z,2.20
2019-05-13T20:38:28.246Z,1.93
2019-05-13T20:40:55.650Z,2.30
2019-05-13T20:43:23.020Z,2.40
2019-05-13T20:45:51.761Z,2.33
2019-05-13T20:48:21.107Z,2.50
2019-05-13T20:50:48.710Z,2.70
2019-05-13T20:53:15.998Z,2.27
2019-05-13T20:55:43.444Z,2.20
2019-05-13T20:58:12.820Z,2.20
2019-05-13T21:00:42.026Z,2.07
2019-05-13T21:03:11.565Z,2.20
2019-05-13T21:05:41.320Z,1.60
2019-05-13T21:08:08.098Z,1.70
2019-05-13T21:10:35.541Z,1.80
2019-05-13T21:13:02.924Z,2.03
2019-05-13T21:15:31.746Z,1.67
2019-05-13T21:17:59.312Z,1.70
2019-05-13T21:20:26.669Z,1.87
2019-05-13T21:22:54.033Z,1.63
2019-05-13T21:25:21.409Z,1.70
2019-05-13T21:27:48.809Z,2.07
2019-05-13T21:30:16.630Z,1.80
2019-05-13T21:32:43.980Z,1.70
2019-05-13T21:35:12.017Z,2.00
2019-05-13T21:37:39.588Z,1.73
2019-05-13T21:40:07.342Z,2.10
2019-05-13T21:42:34.825Z,1.73
2019-05-13T21:45:02.234Z,2.03
2019-05-13T21:47:31.203Z,1.90
2019-05-13T21:49:58.667Z,1.53
2019-05-13T21:52:26.170Z,1.97
2019-05-13T21:54:53.581Z,1.63
2019-05-13T21:57:21.451Z,1.50
2019-05-13T21:59:48.796Z,1.50
2019-05-13T22:02:16.161Z,1.43
2019-05-13T22:04:43.400Z,1.63
2019-05-13T22:07:12.214Z,1.90
2019-05-13T22:09:41.875Z,1.20
2019-05-13T22:12:09.064Z,1.60
2019-05-13T22:14:36.481Z,1.50
2019-05-13T22:17:03.943Z,1.50
2019-05-13T22:19:31.713Z,1.90
2019-05-13T22:21:59.493Z,1.53
2019-05-13T22:24:26.851Z,2.00
2019-05-13T22:26:54.287Z,1.57
2019-05-13T22:29:23.242Z,2.10
2019-05-13T22:31:51.184Z,1.63
2019-05-13T22:34:18.657Z,1.60
2019-05-13T22:36:45.968Z,1.80
2019-05-13T22:39:13.327Z,1.57
2019-05-13T22:41:42.081Z,1.60
2019-05-13T22:44:11.657Z,1.60
2019-05-13T22:46:41.227Z,1.60
2019-05-13T22:49:08.145Z,1.60
2019-05-13T22:51:35.497Z,1.43
2019-05-13T22:54:02.885Z,1.50
2019-05-13T22:56:31.930Z,1.40
2019-05-13T22:58:59.481Z,1.60
2019-05-13T23:01:26.866Z,1.67
2019-05-13T23:03:54.223Z,1.50
2019-05-13T23:06:21.741Z,1.50
2019-05-13T23:08:49.133Z,1.73
2019-05-13T23:11:16.484Z,1.70
2019-05-13T23:13:43.795Z,1.63
2019-05-13T23:16:11.569Z,1.43
2019-05-13T23:18:38.963Z,1.30
2019-05-13T23:21:06.361Z,1.63
2019-05-13T23:23:33.711Z,1.60
2019-05-13T23:26:01.057Z,1.80
2019-05-13T23:28:28.413Z,1.70
2019-05-13T23:30:55.799Z,1.60
2019-05-13T23:33:23.171Z,1.40
2019-05-13T23:35:50.408Z,1.50
2019-05-13T23:38:17.781Z,1.50
2019-05-13T23:40:45.115Z,1.60
2019-05-13T23:43:12.475Z,1.70
2019-05-13T23:45:41.561Z,1.90
2019-05-13T23:48:09.023Z,2.10
2019-05-13T23:50:36.466Z,1.83
2019-05-13T23:53:03.820Z,2.20
2019-05-13T23:55:32.116Z,1.77
2019-05-13T23:58:01.662Z,1.87
